Time;durP1;ratioP1;P1;durP2;ratioP2;P2;SDS_P1;SDS_P2;PMS_P1;PMS_P2;Temp;Humidity;BMP_temperature;BMP_pressure;BME280_temperature;BME280_humidity;BME280_pressure;Samples;Min_cycle;Max_cycle;Signal;HPM_P1;HPM_P2
2022/08/04 00:00:12;;;;;;;5.28;2.50;;;;;;;;;;5101029;28;20464;-74
2022/08/04 00:02:51;;;;;;;8.20;2.65;;;;;;;;;;5103638;28;20040;-73
2022/08/04 00:05:37;;;;;;;9.07;2.53;;;;;;;;;;5085057;28;20040;-74
2022/08/04 00:08:15;;;;;;;6.53;2.88;;;;;;;;;;5063997;28;20051;-73
2022/08/04 00:10:44;;;;;;;11.80;3.08;;;;;;;;;;5087857;28;20073;-73
2022/08/04 00:13:11;;;;;;;5.55;2.92;;;;;;;;;;5087748;28;20151;-73
2022/08/04 00:15:37;;;;;;;7.53;3.13;;;;;;;;;;5087671;28;20066;-74
2022/08/04 00:18:04;;;;;;;5.60;2.65;;;;;;;;;;5087373;28;20039;-74
2022/08/04 00:20:37;;;;;;;6.90;3.53;;;;;;;;;;5102655;28;20036;-74
2022/08/04 00:23:05;;;;;;;6.03;3.25;;;;;;;;;;5102006;28;20058;-74
2022/08/04 00:25:31;;;;;;;6.47;3.22;;;;;;;;;;5099140;28;20275;-74
2022/08/04 00:28:00;;;;;;;5.07;3.53;;;;;;;;;;5087949;28;20044;-74
2022/08/04 00:30:26;;;;;;;8.65;2.85;;;;;;;;;;5098415;28;20043;-74
2022/08/04 00:32:54;;;;;;;6.25;2.38;;;;;;;;;;5104261;28;20425;-74
2022/08/04 00:35:20;;;;;;;5.13;2.22;;;;;;;;;;5102771;28;20093;-74
2022/08/04 00:37:47;;;;;;;4.65;2.65;;;;;;;;;;5066039;28;20052;-74
2022/08/04 00:40:20;;;;;;;9.23;3.13;;;;;;;;;;5086591;28;20250;-74
2022/08/04 00:43:13;;;;;;;8.10;3.33;;;;;;;;;;5071946;28;20090;-74
2022/08/04 00:45:59;;;;;;;10.57;3.50;;;;;;;;;;5078442;28;20370;-74
2022/08/04 00:48:31;;;;;;;9.65;3.58;;;;;;;;;;5057041;28;20043;-73
2022/08/04 00:51:07;;;;;;;5.32;3.03;;;;;;;;;;5089731;28;20201;-74
2022/08/04 00:53:33;;;;;;;9.63;4.03;;;;;;;;;;5084276;28;20051;-74
2022/08/04 00:56:14;;;;;;;10.75;3.47;;;;;;;;;;5088878;28;20083;-73
2022/08/04 00:58:51;;;;;;;9.38;3.38;;;;;;;;;;5073742;28;20044;-74
2022/08/04 01:01:28;;;;;;;11.27;3.88;;;;;;;;;;5076969;28;20076;-74
2022/08/04 01:03:54;;;;;;;9.43;3.80;;;;;;;;;;5073842;28;20044;-74
2022/08/04 01:06:36;;;;;;;5.97;2.95;;;;;;;;;;5089411;28;20038;-74
2022/08/04 01:09:21;;;;;;;16.80;3.50;;;;;;;;;;5102455;28;20032;-74
2022/08/04 01:12:06;;;;;;;8.68;3.70;;;;;;;;;;5089478;28;20810;-74
2022/08/04 01:14:38;;;;;;;6.60;3.45;;;;;;;;;;5079949;28;20066;-74
2022/08/04 01:17:24;;;;;;;13.13;3.63;;;;;;;;;;5107290;28;20469;-74
2022/08/04 01:19:57;;;;;;;9.05;4.30;;;;;;;;;;5072859;28;20044;-74
2022/08/04 01:22:29;;;;;;;14.27;3.80;;;;;;;;;;5090438;28;20040;-74
2022/08/04 01:25:14;;;;;;;7.90;3.33;;;;;;;;;;5104603;28;20067;-74
2022/08/04 01:27:59;;;;;;;10.07;3.53;;;;;;;;;;5090367;28;20405;-74
2022/08/04 01:30:26;;;;;;;8.00;3.85;;;;;;;;;;5104511;28;20043;-74
2022/08/04 01:33:02;;;;;;;4.68;2.97;;;;;;;;;;5090519;28;20273;-74
2022/08/04 01:35:33;;;;;;;6.35;3.35;;;;;;;;;;5105842;28;20043;-74
2022/08/04 01:38:22;;;;;;;5.97;3.75;;;;;;;;;;5075471;28;20294;-74
2022/08/04 01:40:51;;;;;;;9.00;3.70;;;;;;;;;;5106526;28;20086;-74
2022/08/04 01:43:18;;;;;;;14.77;4.88;;;;;;;;;;5106520;28;20043;-74
2022/08/04 01:45:49;;;;;;;10.73;4.57;;;;;;;;;;5106069;28;20067;-75
2022/08/04 01:48:16;;;;;;;8.23;3.65;;;;;;;;;;5073055;28;20039;-74
2022/08/04 01:50:43;;;;;;;12.93;3.90;;;;;;;;;;5105201;28;20494;-75
2022/08/04 01:53:09;;;;;;;17.00;5.63;;;;;;;;;;5090066;28;20040;-74
2022/08/04 01:55:36;;;;;;;11.07;4.22;;;;;;;;;;5105207;28;20437;-75
2022/08/04 01:58:05;;;;;;;6.13;3.10;;;;;;;;;;5104274;28;20050;-75
2022/08/04 02:00:31;;;;;;;10.85;4.15;;;;;;;;;;5103222;28;20119;-75
2022/08/04 02:02:57;;;;;;;7.03;3.83;;;;;;;;;;5090055;28;20047;-75
2022/08/04 02:05:25;;;;;;;8.85;4.68;;;;;;;;;;5105105;28;20050;-75
2022/08/04 02:07:59;;;;;;;13.98;5.03;;;;;;;;;;5106196;28;20043;-74
2022/08/04 02:10:25;;;;;;;7.10;4.30;;;;;;;;;;5098181;28;20056;-75
2022/08/04 02:13:01;;;;;;;7.78;4.30;;;;;;;;;;5080632;28;20082;-75
2022/08/04 02:15:38;;;;;;;10.90;4.43;;;;;;;;;;5089196;28;20066;-75
2022/08/04 02:18:24;;;;;;;11.70;4.95;;;;;;;;;;5089130;28;20032;-75
2022/08/04 02:20:55;;;;;;;11.75;5.47;;;;;;;;;;5104399;28;20044;-75
2022/08/04 02:23:24;;;;;;;8.60;4.60;;;;;;;;;;5087177;28;20493;-74
2022/08/04 02:25:56;;;;;;;7.70;4.65;;;;;;;;;;5083462;28;20040;-75
2022/08/04 02:28:23;;;;;;;;;;;;;;;;;;5084027;28;20319;-75
2022/08/04 02:30:56;;;;;;;10.50;4.90;;;;;;;;;;5085566;28;19916;-74
2022/08/04 02:33:26;;;;;;;10.32;4.72;;;;;;;;;;5105175;28;20047;-75
2022/08/04 02:35:56;;;;;;;6.78;4.05;;;;;;;;;;5069162;28;20043;-75
2022/08/04 02:38:23;;;;;;;10.60;4.20;;;;;;;;;;5066341;28;20478;-75
2022/08/04 02:40:50;;;;;;;10.45;4.53;;;;;;;;;;5079568;28;20044;-75
2022/08/04 02:43:19;;;;;;;8.63;5.03;;;;;;;;;;5083093;28;20042;-75
2022/08/04 02:45:46;;;;;;;6.55;4.50;;;;;;;;;;5099381;28;20032;-75
2022/08/04 02:48:14;;;;;;;10.88;5.72;;;;;;;;;;5089090;28;20031;-75
2022/08/04 02:50:40;;;;;;;12.32;5.43;;;;;;;;;;5086957;28;20075;-75
2022/08/04 02:53:09;;;;;;;8.00;4.57;;;;;;;;;;5106200;28;20063;-75
2022/08/04 02:55:35;;;;;;;10.52;4.57;;;;;;;;;;5105037;28;20066;-75
2022/08/04 02:58:03;;;;;;;9.32;4.78;;;;;;;;;;5105274;28;20051;-75
2022/08/04 03:00:30;;;;;;;12.18;4.80;;;;;;;;;;5104892;28;20036;-75
2022/08/04 03:03:05;;;;;;;14.73;6.00;;;;;;;;;;5072086;28;20379;-75
2022/08/04 03:05:31;;;;;;;8.35;5.32;;;;;;;;;;5086669;28;22492;-75
2022/08/04 03:07:58;;;;;;;8.63;4.82;;;;;;;;;;5088753;28;20059;-75
2022/08/04 03:10:39;;;;;;;7.43;4.82;;;;;;;;;;5101636;28;20040;-75
2022/08/04 03:13:08;;;;;;;9.05;5.22;;;;;;;;;;5088341;28;20059;-74
2022/08/04 03:15:47;;;;;;;10.00;5.50;;;;;;;;;;5097220;28;20398;-75
2022/08/04 03:18:39;;;;;;;9.60;4.88;;;;;;;;;;5088799;28;20132;-75
2022/08/04 03:21:08;;;;;;;7.90;4.50;;;;;;;;;;5068203;28;20460;-74
2022/08/04 03:23:35;;;;;;;7.20;4.68;;;;;;;;;;5105309;28;20043;-75
2022/08/04 03:26:10;;;;;;;11.13;5.07;;;;;;;;;;5104294;28;20036;-75
2022/08/04 03:28:55;;;;;;;12.85;4.63;;;;;;;;;;5104660;28;20075;-75
2022/08/04 03:31:27;;;;;;;9.68;4.72;;;;;;;;;;5080492;28;20558;-75
2022/08/04 03:34:12;;;;;;;9.38;4.95;;;;;;;;;;5104355;28;20040;-74
2022/08/04 03:36:47;;;;;;;7.82;4.68;;;;;;;;;;5073623;28;20047;-74
2022/08/04 03:39:29;;;;;;;8.52;4.43;;;;;;;;;;5104449;28;20047;-74
2022/08/04 03:41:55;;;;;;;8.25;4.32;;;;;;;;;;5085959;28;20131;-75
2022/08/04 03:44:24;;;;;;;8.05;5.20;;;;;;;;;;5087262;28;20173;-75
2022/08/04 03:47:02;;;;;;;12.77;5.05;;;;;;;;;;5075246;28;20100;-75
2022/08/04 03:49:48;;;;;;;10.10;4.28;;;;;;;;;;5101996;28;20048;-74
2022/08/04 03:53:25;;;;;;;9.50;4.80;;;;;;;;;;5069543;28;20051;-74
2022/08/04 03:55:39;;;;;;;9.57;4.80;;;;;;;;;;5070693;28;20052;-74
2022/08/04 03:58:09;;;;;;;10.25;4.75;;;;;;;;;;5102205;28;20040;-74
2022/08/04 04:00:41;;;;;;;9.07;5.40;;;;;;;;;;5077346;28;20044;-74
2022/08/04 04:03:16;;;;;;;9.98;5.97;;;;;;;;;;5087913;28;20036;-75
2022/08/04 04:05:54;;;;;;;11.00;5.38;;;;;;;;;;5103169;28;20035;-75
2022/08/04 04:08:26;;;;;;;6.75;4.88;;;;;;;;;;5104920;28;20051;-75
2022/08/04 04:11:02;;;;;;;8.68;5.30;;;;;;;;;;5087895;28;20047;-75
2022/08/04 04:13:28;;;;;;;9.25;5.70;;;;;;;;;;5087406;28;20047;-75
2022/08/04 04:16:15;;;;;;;9.93;5.22;;;;;;;;;;5104368;28;20052;-75
2022/08/04 04:18:41;;;;;;;8.32;5.05;;;;;;;;;;5080589;28;20041;-74
2022/08/04 04:21:11;;;;;;;11.90;6.05;;;;;;;;;;5084757;28;20174;-75
2022/08/04 04:23:52;;;;;;;7.40;4.82;;;;;;;;;;5083968;28;20313;-74
2022/08/04 04:26:27;;;;;;;10.93;5.28;;;;;;;;;;5090531;28;20048;-74
2022/08/04 04:29:12;;;;;;;9.85;4.75;;;;;;;;;;5084838;28;20073;-75
2022/08/04 04:31:38;;;;;;;15.30;5.63;;;;;;;;;;5082584;28;20231;-74
2022/08/04 04:34:08;;;;;;;12.68;4.90;;;;;;;;;;5083888;28;20040;-75
2022/08/04 04:36:44;;;;;;;9.27;4.80;;;;;;;;;;5105102;28;20070;-75
2022/08/04 04:39:20;;;;;;;8.43;5.05;;;;;;;;;;5083208;28;20454;-74
2022/08/04 04:42:01;;;;;;;10.32;5.78;;;;;;;;;;5089940;28;20036;-75
2022/08/04 04:44:42;;;;;;;9.50;4.63;;;;;;;;;;5085590;28;20514;-75
2022/08/04 04:47:13;;;;;;;7.68;4.72;;;;;;;;;;5078737;28;20394;-75
2022/08/04 04:49:49;;;;;;;10.40;5.30;;;;;;;;;;5073168;28;20490;-75
2022/08/04 04:52:15;;;;;;;8.50;4.85;;;;;;;;;;5073199;28;20088;-75
2022/08/04 04:54:47;;;;;;;8.13;5.03;;;;;;;;;;5107028;28;20071;-75
2022/08/04 04:57:14;;;;;;;6.97;4.18;;;;;;;;;;5078339;28;20048;-75
2022/08/04 04:59:54;;;;;;;7.07;4.75;;;;;;;;;;5091011;28;20044;-75
2022/08/04 05:02:41;;;;;;;8.85;4.82;;;;;;;;;;5078229;28;20036;-74
2022/08/04 05:05:26;;;;;;;10.45;4.78;;;;;;;;;;5102699;28;20036;-75
2022/08/04 05:07:52;;;;;;;11.32;4.32;;;;;;;;;;5091438;28;20393;-74
2022/08/04 05:10:27;;;;;;;9.77;5.30;;;;;;;;;;5095960;28;20040;-75
2022/08/04 05:13:09;;;;;;;8.90;4.60;;;;;;;;;;5080683;28;20048;-76
2022/08/04 05:15:37;;;;;;;12.00;5.38;;;;;;;;;;5107361;28;20523;-75
2022/08/04 05:18:06;;;;;;;12.05;4.65;;;;;;;;;;5107795;28;20212;-76
2022/08/04 05:20:38;;;;;;;9.20;5.07;;;;;;;;;;5089663;28;20040;-75
2022/08/04 05:23:07;;;;;;;9.43;4.85;;;;;;;;;;5090256;28;20505;-76
2022/08/04 05:25:36;;;;;;;8.10;4.63;;;;;;;;;;5073652;28;20460;-75
2022/08/04 05:28:26;;;;;;;9.73;4.78;;;;;;;;;;5096986;28;20117;-76
2022/08/04 05:31:04;;;;;;;6.25;3.58;;;;;;;;;;5076510;28;20550;-76
2022/08/04 05:33:32;;;;;;;10.30;4.93;;;;;;;;;;5107387;28;20706;-75
2022/08/04 05:35:59;;;;;;;8.25;4.53;;;;;;;;;;5103573;28;20100;-76
2022/08/04 05:38:29;;;;;;;9.25;3.70;;;;;;;;;;5090432;28;20044;-76
2022/08/04 05:40:55;;;;;;;6.47;3.30;;;;;;;;;;5094293;28;20040;-76
2022/08/04 05:43:22;;;;;;;10.68;3.78;;;;;;;;;;5083628;28;20046;-76
2022/08/04 05:45:50;;;;;;;8.02;3.75;;;;;;;;;;5106710;28;20474;-76
2022/08/04 05:48:17;;;;;;;5.80;3.30;;;;;;;;;;5090145;28;20039;-75
2022/08/04 05:50:44;;;;;;;8.23;3.95;;;;;;;;;;5088365;28;20040;-75
2022/08/04 05:53:11;;;;;;;7.93;3.70;;;;;;;;;;5078696;28;20079;-75
2022/08/04 05:55:37;;;;;;;8.98;3.35;;;;;;;;;;5106329;28;20071;-75
2022/08/04 05:58:04;;;;;;;9.40;4.55;;;;;;;;;;5104984;28;20378;-75
2022/08/04 06:00:32;;;;;;;6.70;4.50;;;;;;;;;;5106376;28;20047;-76
2022/08/04 06:02:59;;;;;;;10.00;4.57;;;;;;;;;;5089914;28;20393;-75
2022/08/04 06:05:25;;;;;;;10.13;4.72;;;;;;;;;;5102568;28;20070;-75
2022/08/04 06:07:51;;;;;;;7.97;4.25;;;;;;;;;;5088360;28;20049;-75
2022/08/04 06:10:17;;;;;;;10.90;5.22;;;;;;;;;;5086625;28;20533;-75
2022/08/04 06:12:46;;;;;;;9.13;5.00;;;;;;;;;;5087059;28;20532;-75
2022/08/04 06:15:16;;;;;;;7.93;4.43;;;;;;;;;;5104239;28;20064;-75
2022/08/04 06:17:46;;;;;;;11.30;4.63;;;;;;;;;;5086672;28;20071;-75
2022/08/04 06:20:13;;;;;;;9.13;5.30;;;;;;;;;;5084552;28;20405;-75
2022/08/04 06:22:41;;;;;;;8.93;4.75;;;;;;;;;;5101322;28;20047;-75
2022/08/04 06:25:08;;;;;;;13.65;5.18;;;;;;;;;;5085698;28;20032;-75
2022/08/04 06:27:35;;;;;;;10.40;5.20;;;;;;;;;;5068017;28;20032;-75
2022/08/04 06:30:01;;;;;;;8.73;5.20;;;;;;;;;;5102103;28;20167;-75
2022/08/04 06:32:47;;;;;;;9.82;5.20;;;;;;;;;;5103545;28;20029;-75
2022/08/04 06:35:16;;;;;;;9.35;5.15;;;;;;;;;;5085755;28;20038;-75
2022/08/04 06:37:43;;;;;;;12.65;6.13;;;;;;;;;;5083955;28;20044;-75
2022/08/04 06:40:10;;;;;;;8.93;5.88;;;;;;;;;;5088503;28;20093;-75
2022/08/04 06:42:37;;;;;;;13.52;6.40;;;;;;;;;;5103257;28;20040;-75
2022/08/04 06:45:04;;;;;;;7.75;5.68;;;;;;;;;;5086364;28;20409;-75
2022/08/04 06:47:31;;;;;;;8.43;5.38;;;;;;;;;;5103965;28;20085;-75
2022/08/04 06:49:58;;;;;;;7.88;4.78;;;;;;;;;;5082169;28;20043;-75
2022/08/04 06:52:24;;;;;;;9.93;5.45;;;;;;;;;;5068476;28;20038;-75
2022/08/04 06:54:51;;;;;;;10.10;5.88;;;;;;;;;;5067403;28;20063;-75
2022/08/04 06:57:20;;;;;;;15.07;5.93;;;;;;;;;;5068139;28;20047;-75
2022/08/04 06:59:51;;;;;;;9.95;5.38;;;;;;;;;;5069790;28;20043;-75
2022/08/04 07:02:20;;;;;;;14.00;6.65;;;;;;;;;;5085016;28;20039;-75
2022/08/04 07:04:47;;;;;;;12.07;6.35;;;;;;;;;;5066845;28;20043;-75
2022/08/04 07:07:14;;;;;;;10.70;5.93;;;;;;;;;;5101277;28;20032;-75
2022/08/04 07:09:40;;;;;;;10.65;5.65;;;;;;;;;;5100673;28;20385;-75
2022/08/04 07:12:07;;;;;;;8.63;5.68;;;;;;;;;;5086541;28;20571;-75
2022/08/04 07:14:37;;;;;;;7.80;5.53;;;;;;;;;;5105168;28;20066;-75
2022/08/04 07:17:04;;;;;;;9.07;5.57;;;;;;;;;;5102534;28;20079;-75
2022/08/04 07:19:34;;;;;;;9.45;5.38;;;;;;;;;;5086069;28;20083;-75
2022/08/04 07:22:01;;;;;;;14.38;6.07;;;;;;;;;;5103638;28;20129;-75
2022/08/04 07:24:34;;;;;;;10.20;5.63;;;;;;;;;;5088155;28;20032;-75
2022/08/04 07:27:00;;;;;;;9.38;5.97;;;;;;;;;;5089867;28;20092;-75
2022/08/04 07:29:27;;;;;;;10.82;5.88;;;;;;;;;;5102750;28;20387;-75
2022/08/04 07:31:54;;;;;;;7.65;4.70;;;;;;;;;;5087549;28;20054;-75
2022/08/04 07:34:20;;;;;;;12.18;5.55;;;;;;;;;;5088087;28;20052;-75
2022/08/04 07:36:47;;;;;;;10.70;5.55;;;;;;;;;;5084435;28;20119;-75
2022/08/04 07:39:13;;;;;;;7.47;5.00;;;;;;;;;;5071803;28;20040;-75
2022/08/04 07:41:41;;;;;;;6.50;4.60;;;;;;;;;;5104050;28;20115;-74
2022/08/04 07:44:08;;;;;;;10.27;6.07;;;;;;;;;;5105222;28;20642;-75
2022/08/04 07:46:35;;;;;;;5.80;4.65;;;;;;;;;;5104657;28;20458;-75
2022/08/04 07:49:01;;;;;;;9.48;4.88;;;;;;;;;;5071615;28;20050;-74
2022/08/04 07:51:29;;;;;;;10.35;5.40;;;;;;;;;;5102652;28;20058;-74
2022/08/04 07:53:56;;;;;;;13.32;6.10;;;;;;;;;;5096993;28;20082;-74
2022/08/04 07:56:25;;;;;;;9.27;4.57;;;;;;;;;;5088829;28;20395;-75
2022/08/04 07:58:51;;;;;;;7.68;5.95;;;;;;;;;;5099068;28;20040;-75
2022/08/04 08:01:19;;;;;;;11.93;5.30;;;;;;;;;;5103414;28;20040;-74
2022/08/04 08:03:45;;;;;;;8.23;5.45;;;;;;;;;;5103417;28;20083;-75
2022/08/04 08:06:11;;;;;;;15.00;5.30;;;;;;;;;;5102279;28;20039;-74
2022/08/04 08:08:38;;;;;;;9.35;5.03;;;;;;;;;;5086382;28;20044;-75
2022/08/04 08:11:05;;;;;;;13.65;5.28;;;;;;;;;;5103850;28;20244;-75
2022/08/04 08:13:32;;;;;;;10.10;5.30;;;;;;;;;;5084874;28;20118;-75
2022/08/04 08:15:58;;;;;;;7.25;5.47;;;;;;;;;;5087596;28;20032;-75
2022/08/04 08:18:25;;;;;;;11.80;4.60;;;;;;;;;;5103228;28;20067;-75
2022/08/04 08:20:52;;;;;;;8.68;5.05;;;21.50;99.90;;;;;;5100589;28;20282;-75
2022/08/04 08:23:18;;;;;;;9.60;4.97;;;22.60;99.90;;;;;;5083987;28;20385;-75
2022/08/04 08:25:44;;;;;;;9.50;5.03;;;22.60;99.90;;;;;;5085581;28;20032;-75
2022/08/04 08:28:10;;;;;;;10.38;5.15;;;22.60;99.90;;;;;;5085273;28;20554;-75
2022/08/04 08:30:37;;;;;;;10.45;4.82;;;22.70;99.90;;;;;;5083626;28;20043;-74
2022/08/04 08:33:05;;;;;;;13.18;5.20;;;;;;;;;;5086155;28;20044;-75
2022/08/04 08:35:34;;;;;;;11.93;5.93;;;;;;;;;;5101168;28;20052;-75
2022/08/04 08:38:02;;;;;;;16.38;5.40;;;;;;;;;;5084255;28;20052;-75
2022/08/04 08:40:43;;;;;;;8.15;4.40;;;;;;;;;;5085709;28;20043;-75
2022/08/04 08:43:16;;;;;;;9.02;5.82;;;;;;;;;;5081959;28;21224;-75
2022/08/04 08:45:51;;;;;;;6.97;4.28;;;;;;;;;;5066976;28;20435;-75
2022/08/04 08:48:41;;;;;;;9.93;4.68;;;;;;;;;;5064481;28;20044;-75
2022/08/04 08:51:23;;;;;;;5.45;3.67;;;;;;;;;;5082065;28;20370;-74
2022/08/04 08:54:08;;;;;;;9.30;4.25;;;;;;;;;;5080919;28;20468;-75
2022/08/04 08:56:35;;;;;;;8.98;4.28;;;;;;;;;;5102197;28;20048;-74
2022/08/04 08:59:04;;;;;;;9.85;5.13;;;;;;;;;;5104055;28;20117;-75
2022/08/04 09:01:33;;;;;;;7.97;3.88;;;;;;;;;;5100115;28;20482;-74
2022/08/04 09:04:56;;;;;;;8.00;3.63;;;22.70;99.90;;;;;;5094513;28;20040;-75
2022/08/04 09:07:22;;;;;;;;;;;;;;;;;;5072463;28;20040;-75
2022/08/04 09:09:51;;;;;;;5.63;3.40;;;;;;;;;;5062625;28;19923;-74
2022/08/04 09:12:37;;;;;;;6.47;2.70;;;;;;;;;;5076720;28;20040;-75
2022/08/04 09:15:13;;;;;;;5.13;3.00;;;;;;;;;;5101792;28;20511;-74
2022/08/04 09:17:47;;;;;;;5.13;2.53;;;;;;;;;;5107049;28;20481;-74
2022/08/04 09:20:18;;;;;;;9.02;3.35;;;;;;;;;;5087856;28;20051;-74
2022/08/04 09:23:21;;;;;;;8.50;2.63;;;;;;;;;;5095710;28;20429;-74
2022/08/04 09:25:50;;;;;;;4.85;2.45;;;;;;;;;;5046669;28;20126;-73
2022/08/04 09:28:24;;;;;;;7.28;2.40;;;;;;;;;;5077125;28;20044;-73
2022/08/04 09:31:02;;;;;;;3.25;1.92;;;;;;;;;;5080792;28;20513;-74
2022/08/04 09:33:40;;;;;;;3.47;1.58;;;;;;;;;;5050041;28;20079;-74
2022/08/04 09:36:29;;;;;;;3.60;1.73;;;;;;;;;;5087745;28;20032;-74
2022/08/04 09:39:08;;;;;;;3.22;2.13;;;;;;;;;;5082336;28;20478;-74
2022/08/04 09:41:38;;;;;;;2.17;1.52;;;;;;;;;;5082946;28;20032;-74
2022/08/04 09:44:18;;;;;;;2.40;1.40;;;;;;;;;;5106452;28;20115;-74
2022/08/04 09:47:11;;;;;;;3.42;1.98;;;;;;;;;;5100152;28;20393;-73
2022/08/04 09:49:47;;;;;;;3.47;1.27;;;;;;;;;;5051809;28;20570;-74
2022/08/04 09:52:16;;;;;;;2.88;1.58;;;;;;;;;;5091924;28;20048;-74
2022/08/04 09:55:01;;;;;;;2.38;1.50;;;;;;;;;;5085834;28;20063;-74
2022/08/04 09:57:30;;;;;;;2.55;1.40;;;;;;;;;;5081107;28;20055;-73
2022/08/04 10:00:04;;;;;;;3.80;1.48;;;;;;;;;;5075395;28;20166;-73
2022/08/04 10:02:36;;;;;;;2.97;1.80;;;;;;;;;;5090573;28;20048;-74
2022/08/04 10:05:06;;;;;;;5.18;1.48;;;;;;;;;;5088684;28;20055;-74
2022/08/04 10:07:32;;;;;;;4.15;1.90;;;;;;;;;;5081987;28;20035;-74
2022/08/04 10:10:34;;;;;;;3.05;1.30;;;;;;;;;;5083206;28;20088;-72
2022/08/04 10:13:06;;;;;;;2.47;1.25;;;;;;;;;;5000673;28;20069;-73
2022/08/04 10:15:42;;;;;;;4.45;1.33;;;;;;;;;;5070386;28;20458;-73
2022/08/04 10:18:21;;;;;;;6.25;1.52;;;;;;;;;;5083381;28;20123;-73
2022/08/04 10:21:07;;;;;;;2.70;1.40;;;;;;;;;;5075969;28;20414;-73
2022/08/04 10:23:48;;;;;;;3.40;1.83;;;;;;;;;;5066030;28;20036;-74
2022/08/04 10:26:34;;;;;;;1.88;1.38;;;;;;;;;;5077740;28;20047;-75
2022/08/04 10:29:04;;;;;;;3.10;1.17;;;;;;;;;;5077331;28;20090;-74
2022/08/04 10:31:33;;;;;;;3.95;1.77;;;;;;;;;;5079663;28;20032;-73
2022/08/04 10:34:07;;;;;;;4.85;2.05;;;;;;;;;;5080132;28;20054;-74
2022/08/04 10:36:40;;;;;;;4.80;1.60;;;;;;;;;;5078878;28;20051;-74
2022/08/04 10:39:11;;;;;;;3.45;1.33;;;;;;;;;;5083501;28;20501;-74
2022/08/04 10:41:37;;;;;;;3.33;1.63;;;;;;;;;;5078041;28;20033;-74
2022/08/04 10:44:09;;;;;;;5.60;1.60;;;;;;;;;;5091170;28;20082;-75
2022/08/04 10:46:37;;;;;;;2.50;1.50;;;;;;;;;;5084105;28;20088;-74
2022/08/04 10:49:06;;;;;;;2.30;1.50;;;;;;;;;;5080263;28;20065;-74
2022/08/04 10:51:32;;;;;;;3.47;1.58;;;;;;;;;;5081146;28;20048;-74
2022/08/04 10:54:13;;;;;;;2.17;1.40;;;;;;;;;;5068326;28;20054;-75
2022/08/04 10:56:57;;;;;;;3.47;1.40;;;;;;;;;;5063000;28;20070;-74
2022/08/04 10:59:26;;;;;;;4.50;1.60;;;;;;;;;;5082923;28;20469;-74
2022/08/04 11:01:55;;;;;;;4.18;1.98;;;;;;;;;;5081966;28;20124;-73
2022/08/04 11:04:40;;;;;;;5.13;1.80;;;;;;;;;;5087337;28;20066;-75
2022/08/04 11:07:08;;;;;;;3.10;1.40;;;;;;;;;;5103725;28;20035;-75
2022/08/04 11:09:34;;;;;;;3.40;1.35;;;;;;;;;;5082861;28;20566;-75
2022/08/04 11:12:07;;;;;;;3.28;1.40;;;;;;;;;;5080453;28;20071;-74
2022/08/04 11:14:33;;;;;;;;;;;;;;;;;;5099690;28;20496;-74
2022/08/04 11:16:59;;;;;;;3.13;1.40;;;;;;;;;;5080350;28;19961;-75
2022/08/04 11:19:25;;;;;;;2.55;1.15;;;;;;;;;;5083604;28;20405;-73
2022/08/04 11:22:04;;;;;;;2.50;1.25;;;;;;;;;;5082062;28;20043;-74
2022/08/04 11:24:43;;;;;;;2.83;1.23;;;;;;;;;;5082993;28;20118;-75
2022/08/04 11:27:29;;;;;;;2.17;1.40;;;;;;;;;;5082743;28;20036;-75
2022/08/04 11:30:06;;;;;;;3.40;1.48;;;;;;;;;;5050445;28;20044;-75
2022/08/04 11:32:52;;;;;;;2.25;1.20;;;;;;;;;;5061859;28;20421;-75
2022/08/04 11:35:27;;;;;;;3.42;1.40;;;;;;;;;;5075467;28;20040;-75
2022/08/04 11:38:01;;;;;;;2.67;1.13;;;;;;;;;;5081477;28;20046;-74
2022/08/04 11:40:33;;;;;;;3.42;1.10;;;;;;;;;;5076471;28;20040;-75
2022/08/04 11:43:20;;;;;;;3.80;1.20;;;;;;;;;;5076258;28;20044;-75
2022/08/04 11:45:50;;;;;;;3.95;1.48;;;;;;;;;;5064202;28;20115;-75
2022/08/04 11:48:19;;;;;;;2.10;1.30;;;;;;;;;;5093305;28;20427;-73
2022/08/04 11:50:49;;;;;;;2.33;1.35;;;;;;;;;;5068544;28;20043;-75
2022/08/04 11:53:21;;;;;;;3.88;1.52;;;;;;;;;;5054026;28;20044;-75
2022/08/04 11:55:51;;;;;;;2.67;1.27;;;;;;;;;;5084162;28;20387;-74
2022/08/04 11:58:18;;;;;;;3.03;1.40;;;;;;;;;;5099390;28;20458;-74
2022/08/04 12:00:57;;;;;;;4.65;1.65;;;;;;;;;;5085342;28;20122;-75
2022/08/04 12:03:35;;;;;;;2.45;1.33;;;;;;;;;;5084542;28;20347;-74
2022/08/04 12:06:10;;;;;;;3.13;1.30;;;;;;;;;;5102531;28;20040;-75
2022/08/04 12:08:44;;;;;;;3.30;1.88;;;;;;;;;;5082092;28;20032;-73
2022/08/04 12:11:29;;;;;;;3.83;1.65;;;;;;;;;;5085684;28;20271;-73
2022/08/04 12:14:14;;;;;;;4.07;1.33;;;;;;;;;;5103702;28;20055;-73
2022/08/04 12:17:00;;;;;;;2.30;1.20;;;;;;;;;;5057834;28;20463;-73
2022/08/04 12:19:32;;;;;;;2.53;1.42;;;;;;;;;;5097929;28;20045;-74
2022/08/04 12:22:01;;;;;;;3.05;1.55;;;;;;;;;;5083482;28;20098;-73
2022/08/04 12:24:36;;;;;;;2.08;1.33;;;;;;;;;;5058474;28;20028;-74
2022/08/04 12:27:12;;;;;;;2.55;1.30;;;;;;;;;;5075214;28;20080;-74
2022/08/04 12:29:40;;;;;;;2.90;1.67;;;;;;;;;;5080368;28;20494;-75
2022/08/04 12:32:07;;;;;;;4.72;1.52;;;;;;;;;;5096215;28;20048;-74
2022/08/04 12:34:33;;;;;;;4.90;1.60;;;;;;;;;;5054621;28;20040;-74
2022/08/04 12:37:06;;;;;;;2.33;1.58;;;;;;;;;;5076715;28;20505;-74
2022/08/04 12:39:32;;;;;;;3.22;1.25;;;;;;;;;;5107652;28;20052;-74
2022/08/04 12:42:06;;;;;;;3.75;1.60;;;;;;;;;;5104315;28;20131;-74
2022/08/04 12:44:37;;;;;;;3.20;1.65;;;;;;;;;;5108487;28;20043;-74
2022/08/04 12:47:05;;;;;;;3.80;1.20;;;;;;;;;;5077295;28;20044;-74
2022/08/04 12:49:34;;;;;;;3.25;1.67;;;;;;;;;;5091855;28;20044;-74
2022/08/04 12:52:00;;;;;;;2.25;1.23;;;;;;;;;;5102256;28;20450;-74
2022/08/04 12:54:27;;;;;;;6.03;1.50;;;;;;;;;;5108245;28;20052;-74
2022/08/04 12:56:57;;;;;;;4.18;1.55;;;;;;;;;;5107860;28;20116;-74
2022/08/04 12:59:23;;;;;;;4.65;1.50;;;;;;;;;;5090295;28;20044;-73
2022/08/04 13:01:50;;;;;;;4.43;1.85;;;;;;;;;;5106365;28;20040;-74
2022/08/04 13:04:25;;;;;;;4.28;1.50;;;;;;;;;;5107726;28;20374;-74
2022/08/04 13:07:00;;;;;;;5.18;1.88;;;;;;;;;;5085466;28;20127;-74
2022/08/04 13:09:28;;;;;;;5.70;1.98;;;;;;;;;;5082373;28;20074;-74
2022/08/04 13:12:14;;;;;;;2.75;1.42;;;;;;;;;;5105377;28;20083;-74
2022/08/04 13:14:44;;;;;;;5.30;1.50;;;;;;;;;;5089175;28;20040;-74
2022/08/04 13:17:11;;;;;;;4.32;1.70;;;;;;;;;;5068625;28;20040;-74
2022/08/04 13:19:38;;;;;;;4.07;1.63;;;;;;;;;;5084664;28;20044;-74
2022/08/04 13:22:05;;;;;;;2.72;1.40;;;;;;;;;;5067115;28;20043;-74
2022/08/04 13:24:32;;;;;;;2.70;1.70;;;;;;;;;;5057029;28;20039;-74
2022/08/04 13:26:59;;;;;;;4.00;1.83;;;;;;;;;;5088400;28;20040;-74
2022/08/04 13:29:33;;;;;;;3.00;1.70;;;;;;;;;;5084793;28;20036;-74
2022/08/04 13:32:01;;;;;;;3.25;2.03;;;;;;;;;;5087264;28;20090;-74
2022/08/04 13:34:28;;;;;;;4.15;2.58;;;;;;;;;;5068842;28;20230;-74
2022/08/04 13:36:58;;;;;;;5.30;1.70;;;;;;;;;;5088873;28;20501;-73
2022/08/04 13:39:25;;;;;;;7.00;2.00;;;;;;;;;;5086003;28;20401;-74
2022/08/04 13:41:53;;;;;;;5.53;2.20;;;;;;;;;;5087421;28;20032;-73
2022/08/04 13:44:20;;;;;;;9.02;2.88;;;;;;;;;;5097715;28;20522;-74
2022/08/04 13:46:49;;;;;;;13.48;4.35;;;;;;;;;;5087694;28;20036;-74
2022/08/04 13:49:19;;;;;;;6.38;3.17;;;;;;;;;;5085427;28;20043;-73
2022/08/04 13:51:47;;;;;;;10.80;3.70;;;;;;;;;;5087939;28;20040;-74
2022/08/04 13:54:13;;;;;;;9.70;3.70;;;;;;;;;;5090582;28;20401;-73
2022/08/04 13:56:44;;;;;;;11.45;3.53;;;;;;;;;;5089956;28;20048;-74
2022/08/04 13:59:13;;;;;;;7.28;2.80;;;;;;;;;;5105146;28;20036;-74
2022/08/04 14:01:42;;;;;;;8.27;3.25;;;;;;;;;;5106673;28;20127;-74
2022/08/04 14:04:20;;;;;;;7.82;2.63;;;;;;;;;;5107116;28;20044;-74
2022/08/04 14:06:55;;;;;;;8.07;2.80;;;;;;;;;;5088603;28;20083;-74
2022/08/04 14:09:22;;;;;;;8.80;3.72;;;;;;;;;;5106646;28;20040;-74
2022/08/04 14:11:53;;;;;;;6.18;3.47;;;;;;;;;;5090287;28;20032;-74
2022/08/04 14:14:23;;;;;;;9.15;3.85;;;;;;;;;;5089756;28;20043;-74
2022/08/04 14:17:00;;;;;;;9.02;3.60;;;;;;;;;;5089589;28;20722;-74
2022/08/04 14:19:27;;;;;;;8.27;3.30;;;;;;;;;;5090178;28;20512;-74
2022/08/04 14:21:53;;;;;;;6.72;3.03;;;;;;;;;;5071316;28;20044;-74
2022/08/04 14:24:24;;;;;;;8.15;2.40;;;;;;;;;;5106963;28;20036;-74
2022/08/04 14:26:50;;;;;;;6.90;2.78;;;;;;;;;;5089656;28;20040;-74
2022/08/04 14:29:17;;;;;;;5.65;2.60;;;;;;;;;;5105708;28;20051;-74
2022/08/04 14:31:46;;;;;;;6.72;2.53;;;;;;;;;;5076669;28;20153;-74
2022/08/04 14:34:24;;;;;;;6.25;2.70;;;;;;;;;;5103944;28;20484;-74
2022/08/04 14:36:50;;;;;;;3.90;2.08;;;;;;;;;;5087624;28;20051;-74
2022/08/04 14:39:16;;;;;;;4.30;2.28;;;;;;;;;;5085943;28;20032;-74
2022/08/04 14:41:50;;;;;;;4.60;2.00;;;;;;;;;;5089058;28;20051;-74
2022/08/04 14:44:17;;;;;;;2.92;1.67;;;;;;;;;;5084093;28;20040;-74
2022/08/04 14:46:51;;;;;;;3.85;1.60;;;;;;;;;;5090020;28;20028;-74
2022/08/04 14:49:17;;;;;;;5.65;2.00;;;;;;;;;;5072062;28;20043;-74
2022/08/04 14:51:44;;;;;;;3.95;1.70;;;;;;;;;;5078930;28;20481;-74
2022/08/04 14:54:12;;;;;;;3.83;1.70;;;;;;;;;;5089311;28;20479;-74
2022/08/04 14:56:50;;;;;;;5.90;1.70;;;;;;;;;;5085027;28;20402;-74
2022/08/04 14:59:16;;;;;;;2.85;1.95;;;;;;;;;;5106104;28;20128;-73
2022/08/04 15:01:45;;;;;;;5.45;1.63;;;;;;;;;;5089865;28;20040;-74
2022/08/04 15:04:12;;;;;;;2.50;1.42;;;;;;;;;;5098453;28;20042;-74
2022/08/04 15:06:38;;;;;;;3.63;1.85;;;;;;;;;;5104367;28;20401;-74